Terminal Aerodrome Forecast
Issued by NWS Cleveland, OH

Home | Current Version | Previous Version | Graphics & Text | Print | Product List | Glossary Off
Versions: 1 2 3 4 5 6 7 8 9 10 11 12 13 14 15 16 17 18 19 20 21 22 23

571
FTUS41 KCLE 120905 AAA
TAFERI
TAF AMD
KERI 120905Z 1209/1306 22011KT 3SM -SN OVC025
      TEMPO 1209/1213 2SM -SHSN OVC012
     FM121600 23014G20KT P6SM OVC035
     FM122100 25014G22KT 3SM -SHSN OVC020
     FM130200 31016G24KT 2SM -SHSN OVC012=

USA.gov is the U.S. government's official web portal to all federal, state and local government web resources and services.